sensor_id;sensor_type;location;lat;lon;timestamp;P1;durP1;ratioP1;P2;durP2;ratioP2
68870;SDS011;55906;52.278;6.808;2022-11-24T00:01:01;15.55;;;7.07;;
68870;SDS011;55906;52.278;6.808;2022-11-24T00:03:30;21.08;;;6.95;;
68870;SDS011;55906;52.278;6.808;2022-11-24T00:06:01;23.30;;;7.20;;
68870;SDS011;55906;52.278;6.808;2022-11-24T00:08:29;14.57;;;5.90;;
68870;SDS011;55906;52.278;6.808;2022-11-24T00:10:55;18.45;;;6.22;;
68870;SDS011;55906;52.278;6.808;2022-11-24T00:13:27;18.95;;;6.78;;
68870;SDS011;55906;52.278;6.808;2022-11-24T00:15:53;19.43;;;6.77;;
68870;SDS011;55906;52.278;6.808;2022-11-24T00:18:20;19.33;;;6.85;;
68870;SDS011;55906;52.278;6.808;2022-11-24T00:20:52;15.95;;;6.63;;
68870;SDS011;55906;52.278;6.808;2022-11-24T00:23:18;14.18;;;5.72;;
68870;SDS011;55906;52.278;6.808;2022-11-24T00:25:45;16.77;;;6.20;;
68870;SDS011;55906;52.278;6.808;2022-11-24T00:28:11;15.13;;;5.55;;
68870;SDS011;55906;52.278;6.808;2022-11-24T00:30:38;19.70;;;6.22;;
68870;SDS011;55906;52.278;6.808;2022-11-24T00:33:05;14.52;;;6.75;;
68870;SDS011;55906;52.278;6.808;2022-11-24T00:35:31;19.00;;;6.23;;
68870;SDS011;55906;52.278;6.808;2022-11-24T00:37:59;15.80;;;5.93;;
68870;SDS011;55906;52.278;6.808;2022-11-24T00:40:26;20.33;;;5.20;;
68870;SDS011;55906;52.278;6.808;2022-11-24T00:42:52;13.07;;;5.88;;
68870;SDS011;55906;52.278;6.808;2022-11-24T00:45:19;17.53;;;6.77;;
68870;SDS011;55906;52.278;6.808;2022-11-24T00:47:45;14.90;;;5.60;;
68870;SDS011;55906;52.278;6.808;2022-11-24T00:50:12;16.30;;;6.30;;
68870;SDS011;55906;52.278;6.808;2022-11-24T00:52:38;10.93;;;5.47;;
68870;SDS011;55906;52.278;6.808;2022-11-24T00:55:07;17.30;;;5.88;;
68870;SDS011;55906;52.278;6.808;2022-11-24T00:57:33;22.63;;;6.37;;
68870;SDS011;55906;52.278;6.808;2022-11-24T01:00:00;17.65;;;6.32;;
68870;SDS011;55906;52.278;6.808;2022-11-24T01:02:26;18.88;;;6.90;;
68870;SDS011;55906;52.278;6.808;2022-11-24T01:04:53;19.42;;;5.38;;
68870;SDS011;55906;52.278;6.808;2022-11-24T01:07:19;16.90;;;5.18;;
68870;SDS011;55906;52.278;6.808;2022-11-24T01:09:46;20.87;;;5.27;;
68870;SDS011;55906;52.278;6.808;2022-11-24T01:12:14;14.88;;;5.32;;
68870;SDS011;55906;52.278;6.808;2022-11-24T01:14:40;16.58;;;5.55;;
68870;SDS011;55906;52.278;6.808;2022-11-24T01:17:07;14.38;;;5.72;;
68870;SDS011;55906;52.278;6.808;2022-11-24T01:19:34;17.33;;;5.90;;
68870;SDS011;55906;52.278;6.808;2022-11-24T01:22:00;19.67;;;5.43;;
68870;SDS011;55906;52.278;6.808;2022-11-24T01:24:27;16.88;;;5.00;;
68870;SDS011;55906;52.278;6.808;2022-11-24T01:26:53;15.65;;;5.38;;
68870;SDS011;55906;52.278;6.808;2022-11-24T01:29:21;19.03;;;5.47;;
68870;SDS011;55906;52.278;6.808;2022-11-24T01:31:49;21.67;;;5.35;;
68870;SDS011;55906;52.278;6.808;2022-11-24T01:34:16;15.13;;;5.13;;
68870;SDS011;55906;52.278;6.808;2022-11-24T01:36:43;12.48;;;5.35;;
68870;SDS011;55906;52.278;6.808;2022-11-24T01:39:09;16.47;;;5.07;;
68870;SDS011;55906;52.278;6.808;2022-11-24T01:41:36;16.92;;;5.85;;
68870;SDS011;55906;52.278;6.808;2022-11-24T01:44:18;13.90;;;5.75;;
68870;SDS011;55906;52.278;6.808;2022-11-24T01:46:47;17.30;;;5.35;;
68870;SDS011;55906;52.278;6.808;2022-11-24T01:49:17;17.38;;;5.55;;
68870;SDS011;55906;52.278;6.808;2022-11-24T01:51:48;19.83;;;5.30;;
68870;SDS011;55906;52.278;6.808;2022-11-24T01:54:21;17.67;;;5.18;;
68870;SDS011;55906;52.278;6.808;2022-11-24T01:56:52;17.25;;;5.30;;
68870;SDS011;55906;52.278;6.808;2022-11-24T01:59:23;15.70;;;5.15;;
68870;SDS011;55906;52.278;6.808;2022-11-24T02:01:52;15.43;;;4.90;;
68870;SDS011;55906;52.278;6.808;2022-11-24T02:04:22;14.20;;;4.97;;
68870;SDS011;55906;52.278;6.808;2022-11-24T02:06:54;23.38;;;5.57;;
68870;SDS011;55906;52.278;6.808;2022-11-24T02:09:25;15.20;;;5.18;;
68870;SDS011;55906;52.278;6.808;2022-11-24T02:11:57;13.93;;;5.18;;
68870;SDS011;55906;52.278;6.808;2022-11-24T02:14:26;18.50;;;5.53;;
68870;SDS011;55906;52.278;6.808;2022-11-24T02:16:54;14.50;;;4.97;;
68870;SDS011;55906;52.278;6.808;2022-11-24T02:19:24;13.73;;;4.72;;
68870;SDS011;55906;52.278;6.808;2022-11-24T02:21:59;15.02;;;5.20;;
68870;SDS011;55906;52.278;6.808;2022-11-24T02:24:29;16.27;;;5.00;;
68870;SDS011;55906;52.278;6.808;2022-11-24T02:27:03;12.70;;;5.63;;
68870;SDS011;55906;52.278;6.808;2022-11-24T02:29:30;16.88;;;5.47;;
68870;SDS011;55906;52.278;6.808;2022-11-24T02:31:58;17.00;;;4.95;;
68870;SDS011;55906;52.278;6.808;2022-11-24T02:34:26;17.83;;;5.10;;
68870;SDS011;55906;52.278;6.808;2022-11-24T02:36:53;21.20;;;5.27;;
68870;SDS011;55906;52.278;6.808;2022-11-24T02:39:20;13.52;;;4.68;;
68870;SDS011;55906;52.278;6.808;2022-11-24T02:41:48;16.23;;;4.70;;
68870;SDS011;55906;52.278;6.808;2022-11-24T02:44:19;14.45;;;4.50;;
68870;SDS011;55906;52.278;6.808;2022-11-24T02:46:49;17.57;;;5.10;;
68870;SDS011;55906;52.278;6.808;2022-11-24T02:49:27;12.95;;;4.65;;
68870;SDS011;55906;52.278;6.808;2022-11-24T02:51:53;15.95;;;4.78;;
68870;SDS011;55906;52.278;6.808;2022-11-24T02:54:20;13.10;;;5.85;;
68870;SDS011;55906;52.278;6.808;2022-11-24T02:56:47;15.90;;;4.80;;
68870;SDS011;55906;52.278;6.808;2022-11-24T02:59:14;13.02;;;5.25;;
68870;SDS011;55906;52.278;6.808;2022-11-24T03:01:42;11.98;;;4.57;;
68870;SDS011;55906;52.278;6.808;2022-11-24T03:04:08;10.55;;;4.97;;
68870;SDS011;55906;52.278;6.808;2022-11-24T03:06:35;15.15;;;5.07;;
68870;SDS011;55906;52.278;6.808;2022-11-24T03:09:02;14.13;;;4.57;;
68870;SDS011;55906;52.278;6.808;2022-11-24T03:11:28;13.57;;;4.55;;
68870;SDS011;55906;52.278;6.808;2022-11-24T03:13:55;16.38;;;4.53;;
68870;SDS011;55906;52.278;6.808;2022-11-24T03:16:22;15.60;;;5.43;;
68870;SDS011;55906;52.278;6.808;2022-11-24T03:18:50;10.98;;;4.72;;
68870;SDS011;55906;52.278;6.808;2022-11-24T03:21:17;17.37;;;4.50;;
68870;SDS011;55906;52.278;6.808;2022-11-24T03:23:44;15.75;;;4.40;;
68870;SDS011;55906;52.278;6.808;2022-11-24T03:26:11;12.32;;;4.57;;
68870;SDS011;55906;52.278;6.808;2022-11-24T03:28:40;14.80;;;4.35;;
68870;SDS011;55906;52.278;6.808;2022-11-24T03:31:07;12.03;;;4.57;;
68870;SDS011;55906;52.278;6.808;2022-11-24T03:33:34;15.43;;;4.10;;
68870;SDS011;55906;52.278;6.808;2022-11-24T03:36:03;16.67;;;5.15;;
68870;SDS011;55906;52.278;6.808;2022-11-24T03:38:32;19.92;;;5.57;;
68870;SDS011;55906;52.278;6.808;2022-11-24T03:40:58;16.35;;;4.50;;
68870;SDS011;55906;52.278;6.808;2022-11-24T03:43:25;12.60;;;4.70;;
68870;SDS011;55906;52.278;6.808;2022-11-24T03:45:51;15.93;;;5.15;;
68870;SDS011;55906;52.278;6.808;2022-11-24T03:48:18;18.92;;;5.30;;
68870;SDS011;55906;52.278;6.808;2022-11-24T03:50:51;17.02;;;4.43;;
68870;SDS011;55906;52.278;6.808;2022-11-24T03:53:20;14.07;;;4.43;;
68870;SDS011;55906;52.278;6.808;2022-11-24T03:55:48;12.90;;;4.20;;
68870;SDS011;55906;52.278;6.808;2022-11-24T03:58:15;16.02;;;4.88;;
68870;SDS011;55906;52.278;6.808;2022-11-24T04:00:41;15.25;;;5.57;;
68870;SDS011;55906;52.278;6.808;2022-11-24T04:03:08;17.30;;;5.00;;
68870;SDS011;55906;52.278;6.808;2022-11-24T04:05:35;17.17;;;4.17;;
68870;SDS011;55906;52.278;6.808;2022-11-24T04:08:02;19.27;;;4.90;;
68870;SDS011;55906;52.278;6.808;2022-11-24T04:10:32;13.93;;;4.60;;
68870;SDS011;55906;52.278;6.808;2022-11-24T04:13:01;17.25;;;5.13;;
68870;SDS011;55906;52.278;6.808;2022-11-24T04:15:27;18.00;;;4.78;;
68870;SDS011;55906;52.278;6.808;2022-11-24T04:17:54;18.30;;;5.00;;
68870;SDS011;55906;52.278;6.808;2022-11-24T04:20:21;20.63;;;4.75;;
68870;SDS011;55906;52.278;6.808;2022-11-24T04:22:48;17.73;;;5.57;;
68870;SDS011;55906;52.278;6.808;2022-11-24T04:25:15;15.55;;;4.57;;
68870;SDS011;55906;52.278;6.808;2022-11-24T04:27:43;10.47;;;4.40;;
68870;SDS011;55906;52.278;6.808;2022-11-24T04:30:10;16.48;;;4.50;;
68870;SDS011;55906;52.278;6.808;2022-11-24T04:32:37;17.20;;;4.68;;
68870;SDS011;55906;52.278;6.808;2022-11-24T04:35:04;12.27;;;4.20;;
68870;SDS011;55906;52.278;6.808;2022-11-24T04:37:31;33.80;;;5.37;;
68870;SDS011;55906;52.278;6.808;2022-11-24T04:39:59;16.48;;;4.10;;
68870;SDS011;55906;52.278;6.808;2022-11-24T04:42:25;13.32;;;3.90;;
68870;SDS011;55906;52.278;6.808;2022-11-24T04:44:53;13.80;;;4.20;;
68870;SDS011;55906;52.278;6.808;2022-11-24T04:47:21;19.88;;;4.88;;
68870;SDS011;55906;52.278;6.808;2022-11-24T04:49:49;15.53;;;4.63;;
68870;SDS011;55906;52.278;6.808;2022-11-24T04:52:16;16.55;;;4.50;;
68870;SDS011;55906;52.278;6.808;2022-11-24T04:54:44;15.23;;;4.30;;
68870;SDS011;55906;52.278;6.808;2022-11-24T04:57:12;17.73;;;5.32;;
68870;SDS011;55906;52.278;6.808;2022-11-24T04:59:41;17.77;;;4.72;;
68870;SDS011;55906;52.278;6.808;2022-11-24T05:02:09;15.07;;;4.07;;
68870;SDS011;55906;52.278;6.808;2022-11-24T05:04:35;12.32;;;4.35;;
68870;SDS011;55906;52.278;6.808;2022-11-24T05:07:02;14.10;;;4.32;;
68870;SDS011;55906;52.278;6.808;2022-11-24T05:09:29;18.65;;;4.53;;
68870;SDS011;55906;52.278;6.808;2022-11-24T05:11:56;16.02;;;4.70;;
68870;SDS011;55906;52.278;6.808;2022-11-24T05:14:23;27.87;;;5.67;;
68870;SDS011;55906;52.278;6.808;2022-11-24T05:16:50;15.93;;;4.78;;
68870;SDS011;55906;52.278;6.808;2022-11-24T05:19:18;16.20;;;4.70;;
68870;SDS011;55906;52.278;6.808;2022-11-24T05:21:44;16.67;;;4.63;;
68870;SDS011;55906;52.278;6.808;2022-11-24T05:24:11;21.20;;;5.20;;
68870;SDS011;55906;52.278;6.808;2022-11-24T05:26:38;16.38;;;4.32;;
68870;SDS011;55906;52.278;6.808;2022-11-24T05:29:04;13.30;;;4.70;;
68870;SDS011;55906;52.278;6.808;2022-11-24T05:31:31;14.32;;;4.80;;
68870;SDS011;55906;52.278;6.808;2022-11-24T05:33:58;22.53;;;5.03;;
68870;SDS011;55906;52.278;6.808;2022-11-24T05:36:26;16.00;;;5.30;;
68870;SDS011;55906;52.278;6.808;2022-11-24T05:39:10;13.57;;;4.63;;
68870;SDS011;55906;52.278;6.808;2022-11-24T05:41:36;17.67;;;5.07;;
68870;SDS011;55906;52.278;6.808;2022-11-24T05:44:03;11.63;;;4.70;;
68870;SDS011;55906;52.278;6.808;2022-11-24T05:46:30;21.20;;;5.80;;
68870;SDS011;55906;52.278;6.808;2022-11-24T05:48:57;15.63;;;5.22;;
68870;SDS011;55906;52.278;6.808;2022-11-24T05:51:23;14.70;;;4.50;;
68870;SDS011;55906;52.278;6.808;2022-11-24T05:53:51;20.35;;;5.70;;
68870;SDS011;55906;52.278;6.808;2022-11-24T05:56:18;13.38;;;5.78;;
68870;SDS011;55906;52.278;6.808;2022-11-24T05:58:44;20.77;;;5.57;;
68870;SDS011;55906;52.278;6.808;2022-11-24T06:01:11;17.58;;;5.30;;
68870;SDS011;55906;52.278;6.808;2022-11-24T06:03:37;17.35;;;5.45;;
68870;SDS011;55906;52.278;6.808;2022-11-24T06:06:04;17.33;;;5.25;;
68870;SDS011;55906;52.278;6.808;2022-11-24T06:08:32;12.90;;;4.25;;
68870;SDS011;55906;52.278;6.808;2022-11-24T06:11:00;18.60;;;5.17;;
68870;SDS011;55906;52.278;6.808;2022-11-24T06:13:41;25.48;;;5.53;;
68870;SDS011;55906;52.278;6.808;2022-11-24T06:16:07;14.43;;;4.55;;
68870;SDS011;55906;52.278;6.808;2022-11-24T06:18:34;21.05;;;5.18;;
68870;SDS011;55906;52.278;6.808;2022-11-24T06:21:01;16.67;;;4.97;;
68870;SDS011;55906;52.278;6.808;2022-11-24T06:23:28;17.97;;;5.30;;
68870;SDS011;55906;52.278;6.808;2022-11-24T06:25:56;19.67;;;6.18;;
68870;SDS011;55906;52.278;6.808;2022-11-24T06:28:24;15.25;;;5.25;;
68870;SDS011;55906;52.278;6.808;2022-11-24T06:30:51;16.45;;;4.72;;
68870;SDS011;55906;52.278;6.808;2022-11-24T06:33:18;19.50;;;5.80;;
68870;SDS011;55906;52.278;6.808;2022-11-24T06:35:45;15.70;;;5.50;;
68870;SDS011;55906;52.278;6.808;2022-11-24T06:38:11;17.88;;;4.95;;
68870;SDS011;55906;52.278;6.808;2022-11-24T06:40:38;19.52;;;5.28;;
68870;SDS011;55906;52.278;6.808;2022-11-24T06:43:05;15.68;;;4.82;;
68870;SDS011;55906;52.278;6.808;2022-11-24T06:45:33;15.80;;;4.45;;
68870;SDS011;55906;52.278;6.808;2022-11-24T06:47:59;15.33;;;4.97;;
68870;SDS011;55906;52.278;6.808;2022-11-24T06:50:26;17.15;;;4.45;;
68870;SDS011;55906;52.278;6.808;2022-11-24T06:52:53;14.23;;;4.50;;
68870;SDS011;55906;52.278;6.808;2022-11-24T06:55:20;14.55;;;4.72;;
68870;SDS011;55906;52.278;6.808;2022-11-24T06:57:46;12.88;;;4.25;;
68870;SDS011;55906;52.278;6.808;2022-11-24T07:00:13;14.30;;;4.37;;
68870;SDS011;55906;52.278;6.808;2022-11-24T07:02:42;15.43;;;4.32;;
68870;SDS011;55906;52.278;6.808;2022-11-24T07:05:08;12.18;;;4.40;;
68870;SDS011;55906;52.278;6.808;2022-11-24T07:07:35;12.02;;;4.28;;
68870;SDS011;55906;52.278;6.808;2022-11-24T07:10:02;11.57;;;4.85;;
68870;SDS011;55906;52.278;6.808;2022-11-24T07:12:32;11.57;;;4.67;;
68870;SDS011;55906;52.278;6.808;2022-11-24T07:14:59;11.38;;;4.63;;
68870;SDS011;55906;52.278;6.808;2022-11-24T07:17:25;13.50;;;4.43;;
68870;SDS011;55906;52.278;6.808;2022-11-24T07:19:53;10.90;;;4.30;;
68870;SDS011;55906;52.278;6.808;2022-11-24T07:22:20;12.35;;;4.43;;
68870;SDS011;55906;52.278;6.808;2022-11-24T07:24:46;9.73;;;4.40;;
68870;SDS011;55906;52.278;6.808;2022-11-24T07:27:13;12.00;;;4.25;;
68870;SDS011;55906;52.278;6.808;2022-11-24T07:29:39;14.02;;;4.75;;
68870;SDS011;55906;52.278;6.808;2022-11-24T07:32:06;13.73;;;4.65;;
68870;SDS011;55906;52.278;6.808;2022-11-24T07:34:33;11.23;;;4.20;;
68870;SDS011;55906;52.278;6.808;2022-11-24T07:37:01;10.07;;;4.53;;
68870;SDS011;55906;52.278;6.808;2022-11-24T07:39:27;10.43;;;4.05;;
68870;SDS011;55906;52.278;6.808;2022-11-24T07:41:54;9.32;;;4.20;;
68870;SDS011;55906;52.278;6.808;2022-11-24T07:44:20;12.07;;;4.25;;
68870;SDS011;55906;52.278;6.808;2022-11-24T07:46:47;8.47;;;3.80;;
68870;SDS011;55906;52.278;6.808;2022-11-24T07:49:15;9.23;;;4.22;;
68870;SDS011;55906;52.278;6.808;2022-11-24T07:51:42;8.35;;;4.45;;
68870;SDS011;55906;52.278;6.808;2022-11-24T07:54:10;7.55;;;4.13;;
68870;SDS011;55906;52.278;6.808;2022-11-24T07:56:37;16.60;;;4.50;;
68870;SDS011;55906;52.278;6.808;2022-11-24T07:59:03;12.02;;;4.47;;
68870;SDS011;55906;52.278;6.808;2022-11-24T08:01:30;9.85;;;4.80;;
68870;SDS011;55906;52.278;6.808;2022-11-24T08:03:57;10.80;;;4.35;;
68870;SDS011;55906;52.278;6.808;2022-11-24T08:06:23;11.15;;;4.72;;
68870;SDS011;55906;52.278;6.808;2022-11-24T08:08:50;11.43;;;4.77;;
68870;SDS011;55906;52.278;6.808;2022-11-24T08:11:18;10.55;;;4.32;;
68870;SDS011;55906;52.278;6.808;2022-11-24T08:13:44;8.95;;;4.35;;
68870;SDS011;55906;52.278;6.808;2022-11-24T08:16:12;9.77;;;4.55;;
68870;SDS011;55906;52.278;6.808;2022-11-24T08:18:40;12.70;;;4.80;;
68870;SDS011;55906;52.278;6.808;2022-11-24T08:21:08;9.77;;;4.43;;
68870;SDS011;55906;52.278;6.808;2022-11-24T08:23:37;9.45;;;4.60;;
68870;SDS011;55906;52.278;6.808;2022-11-24T08:26:04;10.13;;;5.15;;
68870;SDS011;55906;52.278;6.808;2022-11-24T08:28:34;12.45;;;4.60;;
68870;SDS011;55906;52.278;6.808;2022-11-24T08:31:02;12.63;;;4.68;;
68870;SDS011;55906;52.278;6.808;2022-11-24T08:33:30;12.18;;;4.68;;
68870;SDS011;55906;52.278;6.808;2022-11-24T08:36:01;11.07;;;4.53;;
68870;SDS011;55906;52.278;6.808;2022-11-24T08:38:28;8.65;;;4.53;;
68870;SDS011;55906;52.278;6.808;2022-11-24T08:40:58;9.63;;;4.60;;
68870;SDS011;55906;52.278;6.808;2022-11-24T08:43:25;7.72;;;4.10;;
68870;SDS011;55906;52.278;6.808;2022-11-24T08:45:53;8.80;;;4.85;;
68870;SDS011;55906;52.278;6.808;2022-11-24T08:48:20;9.60;;;4.82;;
68870;SDS011;55906;52.278;6.808;2022-11-24T08:50:47;10.47;;;5.33;;
68870;SDS011;55906;52.278;6.808;2022-11-24T08:53:13;9.77;;;4.55;;
68870;SDS011;55906;52.278;6.808;2022-11-24T08:55:40;11.88;;;4.60;;
68870;SDS011;55906;52.278;6.808;2022-11-24T08:58:06;8.18;;;4.30;;
68870;SDS011;55906;52.278;6.808;2022-11-24T09:00:33;8.00;;;4.65;;
68870;SDS011;55906;52.278;6.808;2022-11-24T09:03:01;9.67;;;5.60;;
68870;SDS011;55906;52.278;6.808;2022-11-24T09:05:28;8.13;;;4.85;;
68870;SDS011;55906;52.278;6.808;2022-11-24T09:07:54;10.82;;;5.35;;
68870;SDS011;55906;52.278;6.808;2022-11-24T09:10:21;10.90;;;4.93;;
68870;SDS011;55906;52.278;6.808;2022-11-24T09:12:48;8.35;;;5.50;;
68870;SDS011;55906;52.278;6.808;2022-11-24T09:15:15;10.17;;;5.10;;
68870;SDS011;55906;52.278;6.808;2022-11-24T09:17:44;8.38;;;5.30;;
68870;SDS011;55906;52.278;6.808;2022-11-24T09:20:12;8.93;;;5.78;;
68870;SDS011;55906;52.278;6.808;2022-11-24T09:22:38;9.10;;;5.75;;
68870;SDS011;55906;52.278;6.808;2022-11-24T09:25:07;10.20;;;6.68;;
68870;SDS011;55906;52.278;6.808;2022-11-24T09:27:34;10.07;;;6.57;;
68870;SDS011;55906;52.278;6.808;2022-11-24T09:30:01;12.18;;;6.38;;
68870;SDS011;55906;52.278;6.808;2022-11-24T09:32:28;11.05;;;6.38;;
68870;SDS011;55906;52.278;6.808;2022-11-24T09:34:55;11.20;;;6.43;;
68870;SDS011;55906;52.278;6.808;2022-11-24T09:37:23;13.32;;;6.75;;
68870;SDS011;55906;52.278;6.808;2022-11-24T09:39:51;12.80;;;6.73;;
68870;SDS011;55906;52.278;6.808;2022-11-24T09:42:18;11.85;;;6.57;;
68870;SDS011;55906;52.278;6.808;2022-11-24T09:45:04;10.73;;;6.40;;
68870;SDS011;55906;52.278;6.808;2022-11-24T09:47:52;9.25;;;6.10;;
68870;SDS011;55906;52.278;6.808;2022-11-24T09:50:24;12.98;;;6.68;;
68870;SDS011;55906;52.278;6.808;2022-11-24T09:52:56;10.47;;;6.97;;
68870;SDS011;55906;52.278;6.808;2022-11-24T09:55:30;10.52;;;6.93;;
68870;SDS011;55906;52.278;6.808;2022-11-24T09:58:04;13.73;;;7.45;;
68870;SDS011;55906;52.278;6.808;2022-11-24T10:00:50;11.88;;;6.93;;
68870;SDS011;55906;52.278;6.808;2022-11-24T10:03:19;14.38;;;7.65;;
68870;SDS011;55906;52.278;6.808;2022-11-24T10:05:51;13.97;;;8.17;;
68870;SDS011;55906;52.278;6.808;2022-11-24T10:08:24;11.13;;;7.45;;
68870;SDS011;55906;52.278;6.808;2022-11-24T10:11:01;11.27;;;6.72;;
68870;SDS011;55906;52.278;6.808;2022-11-24T10:13:35;17.33;;;8.27;;
68870;SDS011;55906;52.278;6.808;2022-11-24T10:16:17;12.57;;;7.78;;
68870;SDS011;55906;52.278;6.808;2022-11-24T10:18:56;14.53;;;7.30;;
68870;SDS011;55906;52.278;6.808;2022-11-24T10:21:37;12.15;;;8.32;;
68870;SDS011;55906;52.278;6.808;2022-11-24T10:24:32;14.45;;;8.00;;
68870;SDS011;55906;52.278;6.808;2022-11-24T10:27:22;14.32;;;8.70;;
68870;SDS011;55906;52.278;6.808;2022-11-24T10:29:52;13.57;;;7.70;;
68870;SDS011;55906;52.278;6.808;2022-11-24T10:32:20;14.10;;;7.53;;
68870;SDS011;55906;52.278;6.808;2022-11-24T10:34:50;13.80;;;8.38;;
68870;SDS011;55906;52.278;6.808;2022-11-24T10:37:19;13.05;;;8.48;;
68870;SDS011;55906;52.278;6.808;2022-11-24T10:39:57;13.15;;;8.35;;
68870;SDS011;55906;52.278;6.808;2022-11-24T10:42:29;12.85;;;7.07;;
68870;SDS011;55906;52.278;6.808;2022-11-24T10:44:57;12.93;;;8.10;;
68870;SDS011;55906;52.278;6.808;2022-11-24T10:47:25;12.63;;;7.75;;
68870;SDS011;55906;52.278;6.808;2022-11-24T10:49:53;13.13;;;8.13;;
68870;SDS011;55906;52.278;6.808;2022-11-24T10:52:23;16.02;;;7.80;;
68870;SDS011;55906;52.278;6.808;2022-11-24T10:54:55;13.10;;;8.27;;
68870;SDS011;55906;52.278;6.808;2022-11-24T10:57:25;15.30;;;7.73;;
68870;SDS011;55906;52.278;6.808;2022-11-24T10:59:53;15.30;;;7.97;;
68870;SDS011;55906;52.278;6.808;2022-11-24T11:02:28;15.40;;;7.93;;
68870;SDS011;55906;52.278;6.808;2022-11-24T11:08:08;16.20;;;8.05;;
68870;SDS011;55906;52.278;6.808;2022-11-24T11:10:45;18.37;;;7.53;;
68870;SDS011;55906;52.278;6.808;2022-11-24T11:13:20;12.30;;;6.90;;
68870;SDS011;55906;52.278;6.808;2022-11-24T11:15:48;14.52;;;7.65;;
68870;SDS011;55906;52.278;6.808;2022-11-24T11:18:15;12.20;;;7.00;;
68870;SDS011;55906;52.278;6.808;2022-11-24T11:20:48;12.60;;;7.97;;
68870;SDS011;55906;52.278;6.808;2022-11-24T11:23:19;12.70;;;6.80;;
68870;SDS011;55906;52.278;6.808;2022-11-24T11:25:50;12.15;;;7.60;;
68870;SDS011;55906;52.278;6.808;2022-11-24T11:28:59;14.57;;;7.40;;
68870;SDS011;55906;52.278;6.808;2022-11-24T11:31:27;12.63;;;7.28;;
68870;SDS011;55906;52.278;6.808;2022-11-24T11:33:58;12.23;;;7.50;;
68870;SDS011;55906;52.278;6.808;2022-11-24T11:36:26;15.23;;;7.10;;
68870;SDS011;55906;52.278;6.808;2022-11-24T11:38:54;13.10;;;6.97;;
68870;SDS011;55906;52.278;6.808;2022-11-24T11:41:23;11.27;;;6.97;;
68870;SDS011;55906;52.278;6.808;2022-11-24T11:43:56;12.48;;;5.88;;
68870;SDS011;55906;52.278;6.808;2022-11-24T11:46:30;10.55;;;5.70;;
68870;SDS011;55906;52.278;6.808;2022-11-24T11:48:57;16.63;;;6.40;;
68870;SDS011;55906;52.278;6.808;2022-11-24T11:51:34;12.35;;;5.63;;
68870;SDS011;55906;52.278;6.808;2022-11-24T11:54:12;15.20;;;6.00;;
68870;SDS011;55906;52.278;6.808;2022-11-24T11:56:53;14.75;;;5.82;;
68870;SDS011;55906;52.278;6.808;2022-11-24T11:59:33;13.75;;;5.50;;
68870;SDS011;55906;52.278;6.808;2022-11-24T12:05:22;12.02;;;4.60;;
68870;SDS011;55906;52.278;6.808;2022-11-24T12:07:59;13.60;;;5.40;;
68870;SDS011;55906;52.278;6.808;2022-11-24T12:10:40;9.57;;;4.97;;
68870;SDS011;55906;52.278;6.808;2022-11-24T12:13:17;11.57;;;4.68;;
68870;SDS011;55906;52.278;6.808;2022-11-24T12:16:07;8.67;;;3.97;;
68870;SDS011;55906;52.278;6.808;2022-11-24T12:18:41;12.20;;;4.32;;
68870;SDS011;55906;52.278;6.808;2022-11-24T12:21:14;10.23;;;3.97;;
68870;SDS011;55906;52.278;6.808;2022-11-24T12:23:47;12.63;;;4.28;;
68870;SDS011;55906;52.278;6.808;2022-11-24T12:26:24;12.10;;;3.78;;
68870;SDS011;55906;52.278;6.808;2022-11-24T12:29:04;11.00;;;3.93;;
68870;SDS011;55906;52.278;6.808;2022-11-24T12:31:45;11.80;;;3.58;;
68870;SDS011;55906;52.278;6.808;2022-11-24T12:34:33;9.38;;;3.72;;
68870;SDS011;55906;52.278;6.808;2022-11-24T12:37:16;12.00;;;3.88;;
68870;SDS011;55906;52.278;6.808;2022-11-24T12:39:54;10.82;;;3.78;;
68870;SDS011;55906;52.278;6.808;2022-11-24T12:42:29;10.70;;;4.10;;
68870;SDS011;55906;52.278;6.808;2022-11-24T12:45:15;10.68;;;4.10;;
68870;SDS011;55906;52.278;6.808;2022-11-24T12:47:50;8.25;;;3.67;;
68870;SDS011;55906;52.278;6.808;2022-11-24T12:50:28;12.63;;;3.72;;
68870;SDS011;55906;52.278;6.808;2022-11-24T12:52:57;12.15;;;3.92;;
68870;SDS011;55906;52.278;6.808;2022-11-24T12:55:29;11.07;;;3.40;;
68870;SDS011;55906;52.278;6.808;2022-11-24T12:58:02;11.65;;;3.67;;
68870;SDS011;55906;52.278;6.808;2022-11-24T13:00:35;10.35;;;3.50;;
68870;SDS011;55906;52.278;6.808;2022-11-24T13:03:15;9.77;;;4.35;;
68870;SDS011;55906;52.278;6.808;2022-11-24T13:05:54;10.60;;;4.55;;
68870;SDS011;55906;52.278;6.808;2022-11-24T13:08:26;10.27;;;4.20;;
68870;SDS011;55906;52.278;6.808;2022-11-24T13:11:00;9.65;;;4.55;;
68870;SDS011;55906;52.278;6.808;2022-11-24T13:13:56;12.00;;;3.90;;
68870;SDS011;55906;52.278;6.808;2022-11-24T13:16:25;10.68;;;3.92;;
68870;SDS011;55906;52.278;6.808;2022-11-24T13:18:53;11.73;;;4.55;;
68870;SDS011;55906;52.278;6.808;2022-11-24T13:24:23;8.82;;;3.30;;
68870;SDS011;55906;52.278;6.808;2022-11-24T13:26:52;12.07;;;3.45;;
68870;SDS011;55906;52.278;6.808;2022-11-24T13:29:29;8.60;;;3.47;;
68870;SDS011;55906;52.278;6.808;2022-11-24T13:35:08;9.23;;;3.80;;
68870;SDS011;55906;52.278;6.808;2022-11-24T13:37:46;9.60;;;3.58;;
68870;SDS011;55906;52.278;6.808;2022-11-24T13:40:37;11.82;;;3.97;;
68870;SDS011;55906;52.278;6.808;2022-11-24T13:43:20;11.13;;;3.85;;
68870;SDS011;55906;52.278;6.808;2022-11-24T13:45:51;15.13;;;4.55;;
68870;SDS011;55906;52.278;6.808;2022-11-24T13:51:23;12.88;;;3.88;;
68870;SDS011;55906;52.278;6.808;2022-11-24T13:53:51;10.27;;;3.65;;
68870;SDS011;55906;52.278;6.808;2022-11-24T13:56:23;10.15;;;4.03;;
68870;SDS011;55906;52.278;6.808;2022-11-24T13:58:54;11.75;;;4.25;;
68870;SDS011;55906;52.278;6.808;2022-11-24T14:01:23;11.03;;;3.63;;
68870;SDS011;55906;52.278;6.808;2022-11-24T14:06:44;14.80;;;4.25;;
68870;SDS011;55906;52.278;6.808;2022-11-24T14:09:24;12.50;;;4.07;;
68870;SDS011;55906;52.278;6.808;2022-11-24T14:11:55;13.60;;;4.00;;
68870;SDS011;55906;52.278;6.808;2022-11-24T14:14:26;17.90;;;4.87;;
68870;SDS011;55906;52.278;6.808;2022-11-24T14:17:06;11.30;;;3.75;;
68870;SDS011;55906;52.278;6.808;2022-11-24T14:19:33;12.77;;;4.50;;
68870;SDS011;55906;52.278;6.808;2022-11-24T14:22:01;16.38;;;4.20;;
68870;SDS011;55906;52.278;6.808;2022-11-24T14:24:29;17.10;;;4.28;;
68870;SDS011;55906;52.278;6.808;2022-11-24T14:26:58;17.37;;;4.13;;
68870;SDS011;55906;52.278;6.808;2022-11-24T14:29:26;18.70;;;4.80;;
68870;SDS011;55906;52.278;6.808;2022-11-24T14:31:58;18.20;;;3.83;;
68870;SDS011;55906;52.278;6.808;2022-11-24T14:34:26;16.83;;;4.53;;
68870;SDS011;55906;52.278;6.808;2022-11-24T14:36:54;12.07;;;3.60;;
68870;SDS011;55906;52.278;6.808;2022-11-24T14:39:24;17.47;;;5.10;;
68870;SDS011;55906;52.278;6.808;2022-11-24T14:42:00;14.27;;;4.80;;
68870;SDS011;55906;52.278;6.808;2022-11-24T14:44:28;13.68;;;4.47;;
68870;SDS011;55906;52.278;6.808;2022-11-24T14:47:00;13.98;;;3.50;;
68870;SDS011;55906;52.278;6.808;2022-11-24T14:49:28;10.02;;;3.75;;
68870;SDS011;55906;52.278;6.808;2022-11-24T14:51:57;14.90;;;4.50;;
68870;SDS011;55906;52.278;6.808;2022-11-24T14:54:28;16.38;;;4.40;;
68870;SDS011;55906;52.278;6.808;2022-11-24T14:56:57;15.38;;;4.72;;
68870;SDS011;55906;52.278;6.808;2022-11-24T14:59:26;15.70;;;4.50;;
68870;SDS011;55906;52.278;6.808;2022-11-24T15:01:54;15.23;;;5.32;;
68870;SDS011;55906;52.278;6.808;2022-11-24T15:04:24;13.10;;;4.60;;
68870;SDS011;55906;52.278;6.808;2022-11-24T15:07:11;15.77;;;4.65;;
68870;SDS011;55906;52.278;6.808;2022-11-24T15:09:48;21.27;;;4.97;;